createdAt,value
2019-03-27T00:02:11.960Z,8.83
2019-03-27T00:04:40.547Z,7.10
2019-03-27T00:07:09.107Z,9.70
2019-03-27T00:09:37.691Z,8.00
2019-03-27T00:12:06.250Z,5.57
2019-03-27T00:14:34.848Z,7.73
2019-03-27T00:17:03.546Z,7.10
2019-03-27T00:19:32.127Z,10.23
2019-03-27T00:22:00.673Z,8.63
2019-03-27T00:24:29.255Z,6.73
2019-03-27T00:26:57.811Z,8.03
2019-03-27T00:29:26.395Z,6.00
2019-03-27T00:31:54.953Z,6.43
2019-03-27T00:34:23.543Z,8.70
2019-03-27T00:36:52.112Z,7.03
2019-03-27T00:39:20.775Z,7.07
2019-03-27T00:41:49.327Z,5.20
2019-03-27T00:44:17.916Z,7.97
2019-03-27T00:46:46.470Z,6.97
2019-03-27T00:49:15.047Z,6.47
2019-03-27T00:51:43.611Z,5.10
2019-03-27T00:54:12.195Z,7.27
2019-03-27T00:56:40.683Z,8.03
2019-03-27T00:59:09.263Z,7.97
2019-03-27T01:01:37.824Z,6.67
2019-03-27T01:04:06.411Z,5.93
2019-03-27T01:06:34.965Z,6.27
2019-03-27T01:09:04.700Z,5.93
2019-03-27T01:11:33.264Z,5.00
2019-03-27T01:14:01.837Z,5.77
2019-03-27T01:16:30.403Z,5.07
2019-03-27T01:18:58.985Z,6.90
2019-03-27T01:21:27.535Z,5.47
2019-03-27T01:23:56.195Z,6.87
2019-03-27T01:26:24.752Z,7.03
2019-03-27T01:28:53.335Z,8.53
2019-03-27T01:31:21.900Z,7.03
2019-03-27T01:33:50.479Z,5.97
2019-03-27T01:36:19.023Z,4.27
2019-03-27T01:38:47.585Z,6.97
2019-03-27T01:41:16.234Z,5.83
2019-03-27T01:43:44.791Z,5.20
2019-03-27T01:46:13.379Z,4.67
2019-03-27T01:48:41.927Z,6.13
2019-03-27T01:51:10.585Z,7.10
2019-03-27T01:53:39.123Z,9.70
2019-03-27T01:56:07.711Z,6.63
2019-03-27T01:58:36.271Z,8.60
2019-03-27T02:01:05.087Z,3.87
2019-03-27T02:03:33.653Z,9.73
2019-03-27T02:06:02.227Z,7.43
2019-03-27T02:08:30.784Z,7.50
2019-03-27T02:10:59.371Z,6.43
2019-03-27T02:13:27.935Z,6.40
2019-03-27T02:16:06.330Z,7.17
2019-03-27T02:18:26.719Z,8.23
2019-03-27T02:20:55.303Z,6.40
2019-03-27T02:23:23.864Z,6.73
2019-03-27T02:25:52.454Z,8.30
2019-03-27T02:28:20.999Z,4.37
2019-03-27T02:30:49.588Z,4.90
2019-03-27T02:33:18.149Z,7.97
2019-03-27T02:35:46.735Z,9.57
2019-03-27T02:38:15.392Z,4.57
2019-03-27T02:40:43.977Z,7.80
2019-03-27T02:43:12.531Z,5.77
2019-03-27T02:45:41.218Z,7.00
2019-03-27T02:48:13.697Z,8.10
2019-03-27T02:50:40.156Z,8.93
2019-03-27T02:53:08.645Z,8.87
2019-03-27T02:55:37.226Z,6.97
2019-03-27T02:58:05.776Z,6.90
2019-03-27T03:00:34.809Z,6.13
2019-03-27T03:03:03.360Z,7.10
2019-03-27T03:05:31.940Z,6.23
2019-03-27T03:08:00.496Z,6.50
2019-03-27T03:10:29.089Z,6.17
2019-03-27T03:13:16.979Z,8.40
2019-03-27T03:15:45.559Z,5.27
2019-03-27T03:18:14.151Z,6.10
2019-03-27T03:20:42.714Z,7.30
2019-03-27T03:23:11.267Z,7.30
2019-03-27T03:25:39.858Z,8.70
2019-03-27T03:28:08.420Z,6.60
2019-03-27T03:30:37.004Z,8.33
2019-03-27T03:33:05.583Z,8.63
2019-03-27T03:35:34.153Z,8.27
2019-03-27T03:38:02.726Z,8.00
2019-03-27T03:40:31.291Z,6.93
2019-03-27T03:42:59.916Z,8.70
2019-03-27T03:45:28.503Z,6.23
2019-03-27T03:47:57.064Z,9.13
2019-03-27T03:50:40.036Z,7.20
2019-03-27T03:53:12.441Z,8.97
2019-03-27T03:55:41.657Z,7.03
2019-03-27T03:58:12.255Z,7.63
2019-03-27T04:00:41.440Z,7.73
2019-03-27T04:03:10.867Z,9.20
2019-03-27T04:05:39.430Z,8.03
2019-03-27T04:08:08.010Z,7.67
2019-03-27T04:10:36.570Z,7.80
2019-03-27T04:13:05.258Z,7.43
2019-03-27T04:15:33.805Z,8.93
2019-03-27T04:18:02.415Z,6.53
2019-03-27T04:20:30.980Z,11.50
2019-03-27T04:22:59.531Z,8.57
2019-03-27T04:25:28.192Z,11.40
2019-03-27T04:27:56.753Z,6.97
2019-03-27T04:30:25.413Z,7.17
2019-03-27T04:32:54.126Z,8.70
2019-03-27T04:35:22.712Z,9.83
2019-03-27T04:37:51.276Z,12.17
2019-03-27T04:40:19.871Z,8.47
2019-03-27T04:42:48.490Z,9.60
2019-03-27T04:45:17.927Z,9.67
2019-03-27T04:47:46.479Z,7.90
2019-03-27T04:50:15.151Z,8.27
2019-03-27T04:52:43.708Z,10.07
2019-03-27T04:55:12.427Z,8.47
2019-03-27T04:57:40.998Z,8.97
2019-03-27T05:00:10.411Z,8.37
2019-03-27T05:02:38.973Z,10.80
2019-03-27T05:05:07.963Z,9.50
2019-03-27T05:07:36.519Z,7.50
2019-03-27T05:10:05.956Z,17.17
2019-03-27T05:12:34.519Z,12.53
2019-03-27T05:15:03.161Z,11.97
2019-03-27T05:17:44.760Z,14.80
2019-03-27T05:20:01.961Z,16.63
2019-03-27T05:22:30.621Z,14.03
2019-03-27T05:24:59.181Z,15.37
2019-03-27T05:27:27.786Z,15.27
2019-03-27T05:29:56.342Z,13.80
2019-03-27T05:32:24.931Z,16.57
2019-03-27T05:34:53.487Z,15.73
2019-03-27T05:37:22.079Z,13.43
2019-03-27T05:39:50.643Z,14.57
2019-03-27T05:42:19.252Z,15.47
2019-03-27T05:44:47.815Z,16.57
2019-03-27T05:47:16.416Z,15.17
2019-03-27T05:49:44.980Z,14.87
2019-03-27T05:52:13.580Z,19.40
2019-03-27T05:54:42.143Z,14.30
2019-03-27T05:57:10.750Z,18.93
2019-03-27T05:59:39.309Z,19.70
2019-03-27T06:02:07.911Z,18.40
2019-03-27T06:04:36.473Z,19.20
2019-03-27T06:07:05.063Z,20.70
2019-03-27T06:09:33.619Z,19.03
2019-03-27T06:12:02.327Z,17.33
2019-03-27T06:14:30.867Z,19.30
2019-03-27T06:16:59.463Z,21.10
2019-03-27T06:19:28.015Z,18.17
2019-03-27T06:21:56.611Z,18.70
2019-03-27T06:24:25.211Z,18.90
2019-03-27T06:26:53.802Z,15.47
2019-03-27T06:29:23.011Z,23.43
2019-03-27T06:31:51.795Z,17.47
2019-03-27T06:34:20.361Z,20.93
2019-03-27T06:36:48.966Z,18.63
2019-03-27T06:39:17.531Z,19.03
2019-03-27T06:41:46.093Z,20.27
2019-03-27T06:44:14.685Z,22.03
2019-03-27T06:46:43.254Z,21.40
2019-03-27T06:49:11.841Z,18.47
2019-03-27T06:51:40.713Z,20.43
2019-03-27T06:54:09.825Z,18.87
2019-03-27T06:56:38.399Z,22.43
2019-03-27T06:59:06.987Z,19.87
2019-03-27T07:01:35.567Z,19.93
2019-03-27T07:04:10.488Z,19.33
2019-03-27T07:06:34.388Z,20.43
2019-03-27T07:09:04.243Z,17.07
2019-03-27T07:11:32.807Z,21.50
2019-03-27T07:14:01.470Z,19.87
2019-03-27T07:16:30.073Z,22.17
2019-03-27T07:18:59.141Z,22.70
2019-03-27T07:21:27.700Z,16.47
2019-03-27T07:23:56.293Z,18.90
2019-03-27T07:26:24.851Z,15.40
2019-03-27T07:28:53.447Z,20.67
2019-03-27T07:31:22.016Z,18.40
2019-03-27T07:33:50.617Z,13.07
2019-03-27T07:36:19.191Z,17.03
2019-03-27T07:38:47.795Z,15.33
2019-03-27T07:41:16.369Z,14.73
2019-03-27T07:43:45.023Z,13.07
2019-03-27T07:46:13.659Z,10.60
2019-03-27T07:48:53.326Z,12.57
2019-03-27T07:51:12.453Z,12.33
2019-03-27T07:53:41.055Z,13.87
2019-03-27T07:56:09.639Z,14.53
2019-03-27T07:58:38.249Z,11.67
2019-03-27T08:01:06.819Z,10.53
2019-03-27T08:03:35.412Z,14.13
2019-03-27T08:06:04.049Z,10.90
2019-03-27T08:08:32.600Z,9.10
2019-03-27T08:11:01.200Z,12.73
2019-03-27T08:13:29.762Z,13.60
2019-03-27T08:15:58.345Z,10.70
2019-03-27T08:18:26.893Z,10.17
2019-03-27T08:20:55.481Z,10.03
2019-03-27T08:23:24.048Z,12.40
2019-03-27T08:25:52.632Z,9.70
2019-03-27T08:28:21.188Z,11.37
2019-03-27T08:30:49.773Z,10.90
2019-03-27T08:33:18.336Z,10.70
2019-03-27T08:35:46.925Z,11.43
2019-03-27T08:38:15.489Z,12.90
2019-03-27T08:40:44.083Z,10.17
2019-03-27T08:43:21.228Z,10.20
2019-03-27T08:45:42.871Z,12.73
2019-03-27T08:48:11.566Z,10.70
2019-03-27T08:50:40.095Z,11.40
2019-03-27T08:53:08.655Z,11.00
2019-03-27T08:55:37.247Z,15.30
2019-03-27T08:58:05.809Z,13.30
2019-03-27T09:00:48.888Z,13.10
2019-03-27T09:03:18.188Z,16.03
2019-03-27T09:05:47.332Z,11.70
2019-03-27T09:08:16.025Z,11.90
2019-03-27T09:10:44.691Z,13.97
2019-03-27T09:13:13.252Z,14.13
2019-03-27T09:15:41.839Z,12.73
2019-03-27T09:18:10.398Z,14.30
2019-03-27T09:20:38.989Z,15.43
2019-03-27T09:23:07.556Z,13.57
2019-03-27T09:25:36.143Z,13.30
2019-03-27T09:28:04.980Z,13.90
2019-03-27T09:30:33.577Z,17.57
2019-03-27T09:33:02.222Z,16.07
2019-03-27T09:35:30.737Z,13.00
2019-03-27T09:37:59.292Z,12.33
2019-03-27T09:40:27.957Z,13.37
2019-03-27T09:42:56.507Z,14.30
2019-03-27T09:45:25.129Z,11.97
2019-03-27T09:47:53.714Z,14.20
2019-03-27T09:50:22.357Z,9.43
2019-03-27T09:52:50.942Z,14.40
2019-03-27T09:55:19.504Z,9.87
2019-03-27T09:57:48.178Z,8.83
2019-03-27T10:00:19.808Z,9.40
2019-03-27T10:02:48.390Z,9.80
2019-03-27T10:05:16.959Z,13.40
2019-03-27T10:07:45.547Z,11.50
2019-03-27T10:10:14.453Z,8.80
2019-03-27T10:12:43.052Z,7.93
2019-03-27T10:15:11.945Z,7.63
2019-03-27T10:17:40.519Z,9.70
2019-03-27T10:20:09.147Z,8.30
2019-03-27T10:22:37.723Z,8.47
2019-03-27T10:25:07.839Z,6.57
2019-03-27T10:27:36.492Z,8.80
2019-03-27T10:30:07.054Z,8.07
2019-03-27T10:32:35.651Z,9.83
2019-03-27T10:35:05.586Z,8.37
2019-03-27T10:37:34.204Z,10.87
2019-03-27T10:40:02.848Z,5.30
2019-03-27T10:42:31.438Z,6.43
2019-03-27T10:45:00.008Z,11.40
2019-03-27T10:47:28.608Z,6.93
2019-03-27T10:49:57.164Z,7.83
2019-03-27T10:52:25.759Z,6.30
2019-03-27T10:54:54.320Z,7.47
2019-03-27T10:57:22.919Z,6.17
2019-03-27T10:59:51.531Z,6.83
2019-03-27T11:02:20.248Z,6.37
2019-03-27T11:04:48.909Z,7.43
2019-03-27T11:07:17.419Z,7.97
2019-03-27T11:09:45.991Z,8.90
2019-03-27T11:12:14.556Z,11.17
2019-03-27T11:14:43.136Z,7.47
2019-03-27T11:17:11.700Z,8.10
2019-03-27T11:19:40.365Z,8.60
2019-03-27T11:22:08.910Z,8.37
2019-03-27T11:24:37.495Z,9.47
2019-03-27T11:27:06.062Z,8.03
2019-03-27T11:29:34.644Z,8.37
2019-03-27T11:32:03.196Z,9.90
2019-03-27T11:34:31.779Z,8.70
2019-03-27T11:37:00.380Z,9.40
2019-03-27T11:39:29.005Z,10.40
2019-03-27T11:42:00.639Z,10.13
2019-03-27T11:44:27.876Z,9.93
2019-03-27T11:46:56.578Z,11.00
2019-03-27T11:49:25.169Z,7.87
2019-03-27T11:51:53.736Z,9.23
2019-03-27T11:54:22.333Z,6.77
2019-03-27T11:56:50.891Z,6.43
2019-03-27T11:59:19.476Z,7.87
2019-03-27T12:01:48.042Z,7.67
2019-03-27T12:04:16.634Z,7.37
2019-03-27T12:06:45.190Z,10.17
2019-03-27T12:09:15.329Z,11.03
2019-03-27T12:11:43.890Z,9.90
2019-03-27T12:14:12.770Z,8.37
2019-03-27T12:16:41.400Z,13.17
2019-03-27T12:19:13.175Z,8.80
2019-03-27T12:21:41.929Z,9.43
2019-03-27T12:24:10.587Z,8.10
2019-03-27T12:26:39.151Z,9.23
2019-03-27T12:29:07.744Z,9.10
2019-03-27T12:31:36.308Z,8.17
2019-03-27T12:34:04.974Z,10.03
2019-03-27T12:36:33.537Z,9.27
2019-03-27T12:39:02.098Z,9.57
2019-03-27T12:41:33.040Z,7.90
2019-03-27T12:44:02.584Z,10.57
2019-03-27T12:46:31.157Z,10.37
2019-03-27T12:48:59.720Z,12.30
2019-03-27T12:51:28.409Z,11.87
2019-03-27T12:53:56.959Z,12.80
2019-03-27T12:56:25.547Z,12.47
2019-03-27T12:58:54.112Z,10.50
2019-03-27T13:01:22.698Z,11.30
2019-03-27T13:03:51.346Z,10.93
2019-03-27T13:06:19.934Z,11.83
2019-03-27T13:08:49.594Z,10.70
2019-03-27T13:11:18.376Z,13.03
2019-03-27T13:13:46.930Z,9.03
2019-03-27T13:16:15.606Z,9.97
2019-03-27T13:18:44.160Z,9.73
2019-03-27T13:21:25.299Z,7.73
2019-03-27T13:23:42.974Z,7.80
2019-03-27T13:26:11.686Z,8.27
2019-03-27T13:28:48.746Z,9.43
2019-03-27T13:31:10.488Z,9.87
2019-03-27T13:33:39.042Z,11.30
2019-03-27T13:36:08.082Z,8.93
2019-03-27T13:38:36.718Z,8.20
2019-03-27T13:41:05.387Z,11.17
2019-03-27T13:43:33.946Z,10.73
2019-03-27T13:46:02.540Z,9.63
2019-03-27T13:48:31.118Z,10.70
2019-03-27T13:50:59.693Z,9.93
2019-03-27T13:53:28.260Z,11.30
2019-03-27T13:55:56.850Z,11.87
2019-03-27T13:58:25.404Z,9.93
2019-03-27T14:00:54.014Z,11.77
2019-03-27T14:03:22.650Z,10.37
2019-03-27T14:05:51.265Z,11.43
2019-03-27T14:08:19.890Z,10.50
2019-03-27T14:10:48.590Z,10.30
2019-03-27T14:13:17.184Z,11.23
2019-03-27T14:15:45.826Z,11.33
2019-03-27T14:18:14.414Z,11.20
2019-03-27T14:20:42.988Z,10.67
2019-03-27T14:23:11.583Z,9.77
2019-03-27T14:25:40.138Z,9.83
2019-03-27T14:28:08.878Z,11.47
2019-03-27T14:30:57.442Z,10.97
2019-03-27T14:33:26.108Z,10.67
2019-03-27T14:35:54.753Z,11.90
2019-03-27T14:38:23.416Z,9.60
2019-03-27T14:40:52.042Z,10.00
2019-03-27T14:43:20.708Z,9.47
2019-03-27T14:45:49.700Z,9.43
2019-03-27T14:48:18.426Z,9.30
2019-03-27T14:50:47.066Z,10.57
2019-03-27T14:53:15.655Z,9.30
2019-03-27T14:55:44.209Z,12.57
2019-03-27T14:58:12.808Z,11.07
2019-03-27T15:00:41.434Z,11.90
2019-03-27T15:03:10.023Z,11.87
2019-03-27T15:05:39.145Z,12.30
2019-03-27T15:08:07.879Z,12.50
2019-03-27T15:10:36.443Z,16.17
2019-03-27T15:13:05.111Z,16.50
2019-03-27T15:15:33.818Z,16.00
2019-03-27T15:18:02.484Z,13.83
2019-03-27T15:20:31.046Z,13.03
2019-03-27T15:22:59.737Z,13.83
2019-03-27T15:25:28.299Z,15.23
2019-03-27T15:27:56.971Z,14.63
2019-03-27T15:30:25.552Z,12.93
2019-03-27T15:32:54.151Z,16.53
2019-03-27T15:35:22.716Z,18.27
2019-03-27T15:37:51.316Z,13.83
2019-03-27T15:40:22.954Z,16.60
2019-03-27T15:42:51.807Z,13.93
2019-03-27T15:45:20.466Z,12.77
2019-03-27T15:47:49.034Z,16.60
2019-03-27T15:50:17.630Z,16.63
2019-03-27T15:52:46.194Z,15.60
2019-03-27T15:55:14.940Z,14.63
2019-03-27T15:57:43.517Z,14.47
2019-03-27T16:00:13.616Z,14.03
2019-03-27T16:02:42.181Z,12.10
2019-03-27T16:05:10.850Z,14.83
2019-03-27T16:07:39.415Z,13.67
2019-03-27T16:10:08.366Z,15.33
2019-03-27T16:12:36.915Z,13.83
2019-03-27T16:15:09.981Z,12.33
2019-03-27T16:17:38.608Z,13.90
2019-03-27T16:20:08.245Z,13.13
2019-03-27T16:22:50.061Z,15.13
2019-03-27T16:25:07.822Z,14.83
2019-03-27T16:27:36.388Z,15.60
2019-03-27T16:30:06.842Z,13.03
2019-03-27T16:32:36.281Z,17.23
2019-03-27T16:35:07.104Z,12.70
2019-03-27T16:37:35.738Z,12.67
2019-03-27T16:40:06.974Z,15.27
2019-03-27T16:42:35.532Z,15.27
2019-03-27T16:45:06.574Z,14.17
2019-03-27T16:47:35.271Z,16.10
2019-03-27T16:50:07.006Z,12.20
2019-03-27T16:52:35.592Z,17.87
2019-03-27T16:55:08.561Z,14.33
2019-03-27T16:57:37.121Z,14.67
2019-03-27T17:00:09.610Z,15.90
2019-03-27T17:02:38.174Z,17.03
2019-03-27T17:05:07.607Z,16.70
2019-03-27T17:07:36.160Z,13.03
2019-03-27T17:10:06.892Z,12.77
2019-03-27T17:12:35.453Z,13.63
2019-03-27T17:15:06.079Z,11.73
2019-03-27T17:17:34.645Z,16.23
2019-03-27T17:20:04.786Z,13.53
2019-03-27T17:22:33.357Z,13.43
2019-03-27T17:25:01.938Z,12.70
2019-03-27T17:27:30.497Z,13.60
2019-03-27T17:29:59.086Z,12.93
2019-03-27T17:32:27.682Z,14.23
2019-03-27T17:34:56.230Z,14.67
2019-03-27T17:37:24.848Z,14.87
2019-03-27T17:39:53.467Z,12.50
2019-03-27T17:42:22.065Z,14.07
2019-03-27T17:44:52.083Z,13.57
2019-03-27T17:47:20.932Z,12.27
2019-03-27T17:49:49.490Z,13.53
2019-03-27T17:52:18.100Z,15.93
2019-03-27T17:54:46.937Z,13.63
2019-03-27T17:57:15.526Z,14.37
2019-03-27T17:59:44.084Z,13.30
2019-03-27T18:02:12.744Z,11.20
2019-03-27T18:04:41.309Z,14.00
2019-03-27T18:07:09.970Z,12.03
2019-03-27T18:09:38.532Z,13.77
2019-03-27T18:12:07.588Z,10.97
2019-03-27T18:14:36.148Z,11.80
2019-03-27T18:17:04.806Z,16.20
2019-03-27T18:19:33.378Z,13.17
2019-03-27T18:22:07.456Z,13.13
2019-03-27T18:24:32.179Z,12.87
2019-03-27T18:27:00.774Z,15.77
2019-03-27T18:29:29.333Z,14.00
2019-03-27T18:31:57.909Z,13.20
2019-03-27T18:34:26.476Z,13.67
2019-03-27T18:36:58.039Z,12.43
2019-03-27T18:39:27.005Z,13.97
2019-03-27T18:41:55.640Z,15.00
2019-03-27T18:44:24.196Z,12.23
2019-03-27T18:46:52.790Z,12.60
2019-03-27T18:49:21.334Z,12.90
2019-03-27T18:51:50.012Z,14.97
2019-03-27T18:54:18.566Z,15.53
2019-03-27T18:56:47.136Z,12.70
2019-03-27T18:59:15.734Z,14.03
2019-03-27T19:01:44.287Z,15.00
2019-03-27T19:04:12.872Z,13.83
2019-03-27T19:06:41.528Z,14.53
2019-03-27T19:09:10.218Z,14.63
2019-03-27T19:11:38.863Z,15.30
2019-03-27T19:14:07.463Z,14.10
2019-03-27T19:16:36.028Z,12.97
2019-03-27T19:19:04.757Z,10.90
2019-03-27T19:21:33.320Z,12.87
2019-03-27T19:24:13.267Z,14.43
2019-03-27T19:26:32.135Z,13.30
2019-03-27T19:29:00.786Z,13.40
2019-03-27T19:31:29.352Z,11.90
2019-03-27T19:33:57.944Z,12.60
2019-03-27T19:36:26.508Z,13.13
2019-03-27T19:38:55.094Z,12.63
2019-03-27T19:41:23.669Z,13.77
2019-03-27T19:43:52.282Z,14.47
2019-03-27T19:46:20.846Z,17.97
2019-03-27T19:48:49.428Z,14.73
2019-03-27T19:51:18.055Z,14.27
2019-03-27T19:53:46.642Z,12.57
2019-03-27T19:56:15.217Z,12.80
2019-03-27T19:58:43.834Z,12.47
2019-03-27T20:01:12.408Z,12.77
2019-03-27T20:03:41.172Z,16.30
2019-03-27T20:06:09.806Z,16.47
2019-03-27T20:08:38.318Z,14.10
2019-03-27T20:11:06.966Z,14.13
2019-03-27T20:13:35.634Z,13.53
2019-03-27T20:16:04.196Z,12.97
2019-03-27T20:18:32.827Z,12.57
2019-03-27T20:21:01.410Z,14.07
2019-03-27T20:23:30.045Z,15.73
2019-03-27T20:25:58.634Z,15.17
2019-03-27T20:28:27.208Z,15.20
2019-03-27T20:30:55.807Z,16.10
2019-03-27T20:33:24.359Z,17.50
2019-03-27T20:35:53.017Z,14.87
2019-03-27T20:38:21.589Z,14.67
2019-03-27T20:40:50.162Z,15.37
2019-03-27T20:43:18.726Z,12.73
2019-03-27T20:45:47.321Z,14.07
2019-03-27T20:48:15.886Z,12.33
2019-03-27T20:50:44.476Z,13.03
2019-03-27T20:53:13.041Z,14.03
2019-03-27T20:55:41.622Z,16.57
2019-03-27T20:58:10.181Z,12.63
2019-03-27T21:00:38.778Z,12.33
2019-03-27T21:03:07.336Z,18.10
2019-03-27T21:05:35.943Z,14.53
2019-03-27T21:08:04.595Z,13.77
2019-03-27T21:10:33.330Z,13.90
2019-03-27T21:13:01.894Z,17.70
2019-03-27T21:15:30.504Z,14.33
2019-03-27T21:17:59.080Z,53.67
2019-03-27T21:20:27.682Z,20.00
2019-03-27T21:22:56.250Z,18.40
2019-03-27T21:25:24.841Z,16.53
2019-03-27T21:27:53.713Z,17.63
2019-03-27T21:30:22.331Z,17.93
2019-03-27T21:32:50.921Z,17.80
2019-03-27T21:35:19.526Z,17.20
2019-03-27T21:37:48.121Z,14.03
2019-03-27T21:40:17.587Z,18.30
2019-03-27T21:42:46.202Z,16.17
2019-03-27T21:45:15.119Z,20.70
2019-03-27T21:47:43.690Z,15.93
2019-03-27T21:50:12.517Z,17.67
2019-03-27T21:52:41.141Z,23.07
2019-03-27T21:55:22.029Z,20.77
2019-03-27T21:57:40.254Z,17.63
2019-03-27T22:00:09.780Z,28.27
2019-03-27T22:02:38.535Z,20.70
2019-03-27T22:05:07.192Z,18.20
2019-03-27T22:07:35.817Z,22.70
2019-03-27T22:10:08.281Z,20.50
2019-03-27T22:12:38.442Z,19.33
2019-03-27T22:15:08.303Z,25.30
2019-03-27T22:17:36.941Z,19.10
2019-03-27T22:20:07.336Z,23.63
2019-03-27T22:22:35.944Z,19.50
2019-03-27T22:25:07.277Z,18.83
2019-03-27T22:27:35.887Z,18.87
2019-03-27T22:30:06.516Z,31.13
2019-03-27T22:32:35.130Z,20.97
2019-03-27T22:35:05.763Z,28.63
2019-03-27T22:37:34.387Z,27.37
2019-03-27T22:40:06.450Z,25.33
2019-03-27T22:42:35.220Z,24.57
2019-03-27T22:45:05.155Z,27.00
2019-03-27T22:47:33.775Z,22.53
2019-03-27T22:50:02.487Z,25.83
2019-03-27T22:52:31.172Z,20.47
2019-03-27T22:54:59.761Z,21.23
2019-03-27T22:57:28.375Z,18.03
2019-03-27T22:59:57.039Z,26.10
2019-03-27T23:02:25.659Z,23.77
2019-03-27T23:04:57.232Z,28.70
2019-03-27T23:07:25.857Z,28.17
2019-03-27T23:09:54.447Z,22.40
2019-03-27T23:12:23.075Z,19.23
2019-03-27T23:14:51.729Z,22.87
2019-03-27T23:17:20.357Z,21.93
2019-03-27T23:19:51.338Z,25.13
2019-03-27T23:22:19.227Z,21.40
2019-03-27T23:24:47.848Z,18.83
2019-03-27T23:27:16.435Z,22.13
2019-03-27T23:29:45.059Z,24.97
2019-03-27T23:32:13.646Z,20.73
2019-03-27T23:34:42.258Z,22.53
2019-03-27T23:37:10.853Z,26.53
2019-03-27T23:39:39.481Z,23.13
2019-03-27T23:42:08.133Z,31.77
2019-03-27T23:44:36.752Z,24.60
2019-03-27T23:47:05.416Z,23.60
2019-03-27T23:49:33.988Z,20.93
2019-03-27T23:52:02.627Z,31.07
2019-03-27T23:54:31.239Z,29.37
2019-03-27T23:56:59.825Z,29.03
2019-03-27T23:59:28.447Z,22.90
